Thursday, February 22, 2018, 12:11 PM EST
Back to Local

KMHT, Manchester Airport

Location: Manchester, NH, United States Lat: 42.933
Local Time: 12:11 PM EST (17:11 GMT) Lon: -71.433
Time Zone: US/Eastern Elev: 232 ft

Show me the last for .
Show Coded

Time T Td Feel RH Dir Speed Gust Alt SLP Vis Weather Sky Remarks
2018-02-22 11:53 40 18 37 40 300° 5 - 30.64 30.68 10 OVC080 Pressure falling rapidly
2018-02-22 10:53 40 18 36 40 Variable 6 - 30.66 30.71 10 OVC100 None
2018-02-22 09:53 39 18 36 42 340° 5 - 30.63 30.68 10 BKN095 None
2018-02-22 08:53 39 17 33 40 330° 8 - 30.64 30.68 10 BKN110 None
2018-02-22 07:53 38 17 31 42 340° 9 - 30.63 30.67 10 OVC095 None
2018-02-22 06:53 38 19 33 46 330° 6 - 30.60 30.64 10 OVC090 6-hr Min Temp (7am): 37.9°F
6-hr Max Temp (7am): 46.0°F
2018-02-22 05:53 39 20 33 45 340° 9 - 30.58 30.62 10 OVC085 None
2018-02-22 04:53 40 21 34 46 340° 8 - 30.56 30.60 10 OVC080 None
2018-02-22 03:53 40 23 32 50 350° 15 - 30.53 30.57 10 OVC080 None
2018-02-22 02:53 42 24 36 48 350° 12 - 30.52 30.56 10 OVC080 None
2018-02-22 01:53 43 26 38 50 340° 8 - 30.49 30.53 10 OVC080 None
2018-02-22 00:53 46 26 38 45 340° 14 20 30.46 30.50 10 BKN075 6-hr Min Temp (1am): 46.0°F
6-hr Max Temp (1am): 64.9°F
2018-02-21 23:53 49 26 41 40 320° 15 25 30.42 30.46 10 OVC080 24-hr Min Temp (12am): 35.1°F
24-hr Max Temp (12am): 77.0°F
2018-02-21 22:53 51 26 - 37 320° 15 25 30.37 30.41 10 OVC090 None
2018-02-21 21:53 53 33 - 46 320° 12 - 30.34 30.38 10 FEW029 OVC080 None
2018-02-21 21:37 53 33 - 46 320° 16 26 30.34 - 10 FEW029 OVC080 None
2018-02-21 21:03 54 43 - 66 310° 13 23 30.32 - 10 BKN026 BKN070 OVC090 None
2018-02-21 20:53 54 43 - 66 330° 14 - 30.31 30.36 10 FEW025 BKN060 OVC090 None
2018-02-21 19:53 58 48 - 69 340° 16 24 30.27 30.31 10 SCT030 BKN043 OVC070 None
2018-02-21 18:53 65 50 - 58 290° 8 - 30.21 30.25 10 BKN045 OVC055 Peak wind: 36 mph (32 kts) from 320° at 01 min
6-hr Min Temp (7pm): 64.9°F
6-hr Max Temp (7pm): 77.0°F
2018-02-21 17:53 72 55 76 55 290° 9 17 30.13 30.16 10 BKN048 Pressure rising rapidly
2018-02-21 16:53 74 55 77 51 240° 8 - 30.07 30.11 10 SCT070 SCT250 None
2018-02-21 15:53 76 53 77 45 230° 10 - 30.05 30.09 10 FEW070 SCT250 None
2018-02-21 14:53 75 55 77 49 200° 10 - 30.04 30.08 10 FEW065 SCT250 None
2018-02-21 13:53 74 55 77 51 210° 12 - 30.04 30.08 10 BKN250 None
2018-02-21 12:53 72 55 76 55 190° 16 22 30.07 30.11 10 FEW120 SCT200 BKN250 6-hr Min Temp (1pm): 36.0°F
6-hr Max Temp (1pm): 72.0°F

Support USWX by starting your Amazon purchase here.